Time,TemperatureF,DewpointF,PressureIn,WindDirection,WindDirectionDegrees,WindSpeedMPH,WindSpeedGustMPH,Humidity,HourlyPrecipIn,Conditions,Clouds,dailyrainin,SoftwareType,DateUTC
2013-01-10 00:00:00,21.0,-21.0,-100.00,South,182,17.0,19.0,14,-99.99,,,-99.99,,2013-01-10 07:00:00,
2013-01-10 00:42:00,21.0,-21.0,-100.00,South,182,17.0,19.0,14,-99.99,,,-99.99,,2013-01-10 07:42:00,
2013-01-10 00:52:00,21.0,-21.0,-100.00,South,182,17.0,19.0,14,-99.99,,,-99.99,,2013-01-10 07:52:00,
2013-01-10 01:00:00,20.0,-21.0,-100.00,SSE,165,16.0,21.0,14,-99.99,,,-99.99,,2013-01-10 08:00:00,
2013-01-10 01:42:00,20.0,-21.0,-100.00,SSE,165,16.0,21.0,14,-99.99,,,-99.99,,2013-01-10 08:42:00,
2013-01-10 01:53:00,20.0,-21.0,-100.00,SSE,165,16.0,21.0,14,-99.99,,,-99.99,,2013-01-10 08:53:00,
2013-01-10 02:00:00,20.0,-21.0,-100.00,South,169,20.0,28.0,14,-99.99,,,-99.99,,2013-01-10 09:00:00,
2013-01-10 02:43:00,20.0,-21.0,-100.00,South,169,20.0,28.0,14,-99.99,,,-99.99,,2013-01-10 09:43:00,
2013-01-10 02:52:00,20.0,-21.0,-100.00,South,169,20.0,28.0,14,-99.99,,,-99.99,,2013-01-10 09:52:00,
2013-01-10 03:00:00,20.0,-22.0,-100.00,SSE,162,20.0,27.0,14,-99.99,,,-99.99,,2013-01-10 10:00:00,
2013-01-10 03:42:00,20.0,-22.0,-100.00,SSE,162,20.0,27.0,14,-99.99,,,-99.99,,2013-01-10 10:42:00,
2013-01-10 03:52:00,20.0,-22.0,-100.00,SSE,162,20.0,27.0,14,-99.99,,,-99.99,,2013-01-10 10:52:00,
2013-01-10 04:00:00,18.0,-21.0,-100.00,SSE,156,21.0,29.0,15,-99.99,,,-99.99,,2013-01-10 11:00:00,
2013-01-10 04:43:00,18.0,-21.0,-100.00,SSE,156,21.0,29.0,15,-99.99,,,-99.99,,2013-01-10 11:43:00,
2013-01-10 04:53:00,18.0,-21.0,-100.00,SSE,156,21.0,29.0,15,-99.99,,,-99.99,,2013-01-10 11:53:00,
2013-01-10 05:00:00,17.0,-20.0,-100.00,SSE,163,21.0,29.0,17,-99.99,,,-99.99,,2013-01-10 12:00:00,
2013-01-10 05:43:00,17.0,-20.0,-100.00,SSE,163,21.0,29.0,17,-99.99,,,-99.99,,2013-01-10 12:43:00,
2013-01-10 05:53:00,17.0,-20.0,-100.00,SSE,163,21.0,29.0,17,-99.99,,,-99.99,,2013-01-10 12:53:00,
2013-01-10 06:00:00,16.0,-19.0,-100.00,SSE,161,23.0,33.0,18,-99.99,,,-99.99,,2013-01-10 13:00:00,
2013-01-10 06:42:00,16.0,-19.0,-100.00,SSE,161,23.0,33.0,18,-99.99,,,-99.99,,2013-01-10 13:42:00,
2013-01-10 06:53:00,16.0,-19.0,-100.00,SSE,161,23.0,33.0,18,-99.99,,,-99.99,,2013-01-10 13:53:00,
2013-01-10 07:00:00,15.0,-18.0,-100.00,SSE,163,29.0,40.0,20,-99.99,,,-99.99,,2013-01-10 14:00:00,
2013-01-10 07:43:00,15.0,-18.0,-100.00,SSE,163,29.0,40.0,20,-99.99,,,-99.99,,2013-01-10 14:43:00,
2013-01-10 07:53:00,15.0,-18.0,-100.00,SSE,163,29.0,40.0,20,-99.99,,,-99.99,,2013-01-10 14:53:00,
2013-01-10 08:00:00,15.0,-15.0,-100.00,SSE,162,23.0,32.0,24,-99.99,,,-99.99,,2013-01-10 15:00:00,
2013-01-10 08:43:00,15.0,-15.0,-100.00,SSE,162,23.0,32.0,24,-99.99,,,-99.99,,2013-01-10 15:43:00,
2013-01-10 08:53:00,15.0,-15.0,-100.00,SSE,162,23.0,32.0,24,-99.99,,,-99.99,,2013-01-10 15:53:00,
2013-01-10 09:00:00,14.0,-12.0,-100.00,SSE,164,21.0,34.0,29,-99.99,,,-99.99,,2013-01-10 16:00:00,
2013-01-10 09:43:00,14.0,-12.0,-100.00,SSE,164,21.0,34.0,29,-99.99,,,-99.99,,2013-01-10 16:43:00,
2013-01-10 09:53:00,14.0,-12.0,-100.00,SSE,164,21.0,34.0,29,-99.99,,,-99.99,,2013-01-10 16:53:00,
2013-01-10 10:00:00,14.0,-13.0,-100.00,SSE,156,23.0,33.0,28,-99.99,,,-99.99,,2013-01-10 17:00:00,
2013-01-10 10:43:00,14.0,-13.0,-100.00,SSE,156,23.0,33.0,28,-99.99,,,-99.99,,2013-01-10 17:43:00,
2013-01-10 10:53:00,14.0,-13.0,-100.00,SSE,156,23.0,33.0,28,-99.99,,,-99.99,,2013-01-10 17:53:00,
2013-01-10 11:00:00,15.0,-10.0,-100.00,SSE,166,20.0,36.0,31,-99.99,,,-99.99,,2013-01-10 18:00:00,
2013-01-10 11:43:00,15.0,-10.0,-100.00,SSE,166,20.0,36.0,31,-99.99,,,-99.99,,2013-01-10 18:43:00,
2013-01-10 11:53:00,15.0,-10.0,-100.00,SSE,166,20.0,36.0,31,-99.99,,,-99.99,,2013-01-10 18:53:00,
2013-01-10 12:00:00,16.0,-9.0,-100.00,South,180,25.0,34.0,33,-99.99,,,-99.99,,2013-01-10 19:00:00,
2013-01-10 12:43:00,16.0,-9.0,-100.00,South,180,25.0,34.0,33,-99.99,,,-99.99,,2013-01-10 19:43:00,
2013-01-10 12:53:00,16.0,-9.0,-100.00,South,180,25.0,34.0,33,-99.99,,,-99.99,,2013-01-10 19:53:00,
2013-01-10 13:00:00,14.0,-6.0,-100.00,South,191,25.0,33.0,39,-99.99,,,-99.99,,2013-01-10 20:00:00,
2013-01-10 13:43:00,14.0,-6.0,-100.00,South,191,25.0,33.0,39,-99.99,,,-99.99,,2013-01-10 20:43:00,
2013-01-10 13:53:00,14.0,-6.0,-100.00,South,191,25.0,33.0,39,-99.99,,,-99.99,,2013-01-10 20:53:00,
2013-01-10 14:00:00,13.0,-3.0,-100.00,South,185,21.0,32.0,47,-99.99,,,-99.99,,2013-01-10 21:00:00,
2013-01-10 14:43:00,13.0,-3.0,-100.00,South,185,21.0,32.0,47,-99.99,,,-99.99,,2013-01-10 21:43:00,
2013-01-10 14:53:00,13.0,-3.0,-100.00,South,185,21.0,32.0,47,-99.99,,,-99.99,,2013-01-10 21:53:00,
2013-01-10 15:00:00,13.0,4.0,-100.00,SSE,157,21.0,42.0,65,-99.99,,,-99.99,,2013-01-10 22:00:00,
2013-01-10 15:44:00,13.0,4.0,-100.00,SSE,157,21.0,42.0,65,-99.99,,,-99.99,,2013-01-10 22:44:00,
2013-01-10 16:00:00,12.0,9.0,-100.00,SSE,163,22.0,42.0,90,-99.99,,,-99.99,,2013-01-10 23:00:00,
2013-01-10 16:43:00,12.0,9.0,-100.00,SSE,163,22.0,42.0,90,-99.99,,,-99.99,,2013-01-10 23:43:00,
2013-01-10 16:53:00,12.0,9.0,-100.00,SSE,163,22.0,42.0,90,-99.99,,,-99.99,,2013-01-10 23:53:00,
2013-01-10 17:00:00,11.0,10.0,-100.00,SSE,148,24.0,42.0,92,-99.99,,,-99.99,,2013-01-11 00:00:00,
2013-01-10 17:43:00,11.0,10.0,-100.00,SSE,148,24.0,42.0,92,-99.99,,,-99.99,,2013-01-11 00:43:00,
2013-01-10 17:53:00,11.0,10.0,-100.00,SSE,148,24.0,42.0,92,-99.99,,,-99.99,,2013-01-11 00:53:00,
2013-01-10 18:00:00,11.0,9.0,-100.00,SE,138,23.0,44.0,92,-99.99,,,-99.99,,2013-01-11 01:00:00,
2013-01-10 18:43:00,11.0,9.0,-100.00,SE,138,23.0,44.0,92,-99.99,,,-99.99,,2013-01-11 01:43:00,
2013-01-10 18:53:00,11.0,9.0,-100.00,SE,138,23.0,44.0,92,-99.99,,,-99.99,,2013-01-11 01:53:00,
2013-01-10 19:00:00,10.0,8.0,-100.00,SE,139,25.0,43.0,92,-99.99,,,-99.99,,2013-01-11 02:00:00,
2013-01-10 19:43:00,10.0,8.0,-100.00,SE,139,25.0,43.0,92,-99.99,,,-99.99,,2013-01-11 02:43:00,
2013-01-10 19:54:00,10.0,8.0,-100.00,SE,139,25.0,43.0,92,-99.99,,,-99.99,,2013-01-11 02:54:00,
2013-01-10 20:00:00,10.0,8.0,-100.00,SE,139,23.0,45.0,92,-99.99,,,-99.99,,2013-01-11 03:00:00,
2013-01-10 20:43:00,10.0,8.0,-100.00,SE,139,23.0,45.0,92,-99.99,,,-99.99,,2013-01-11 03:43:00,
2013-01-10 20:53:00,10.0,8.0,-100.00,SE,139,23.0,45.0,92,-99.99,,,-99.99,,2013-01-11 03:53:00,
2013-01-10 21:00:00,9.0,7.0,-100.00,SE,132,23.0,49.0,92,-99.99,,,-99.99,,2013-01-11 04:00:00,
2013-01-10 21:43:00,9.0,7.0,-100.00,SE,132,23.0,49.0,92,-99.99,,,-99.99,,2013-01-11 04:43:00,
2013-01-10 21:53:00,9.0,7.0,-100.00,SE,132,23.0,49.0,92,-99.99,,,-99.99,,2013-01-11 04:53:00,
2013-01-10 22:00:00,8.0,6.0,-100.00,SE,136,24.0,51.0,91,-99.99,,,-99.99,,2013-01-11 05:00:00,
2013-01-10 22:43:00,8.0,6.0,-100.00,SE,136,24.0,51.0,91,-99.99,,,-99.99,,2013-01-11 05:43:00,
2013-01-10 22:53:00,8.0,6.0,-100.00,SE,136,24.0,51.0,91,-99.99,,,-99.99,,2013-01-11 05:53:00,
2013-01-10 23:00:00,8.0,6.0,-100.00,SE,139,28.0,58.0,91,-99.99,,,-99.99,,2013-01-11 06:00:00,
2013-01-10 23:42:00,8.0,6.0,-100.00,SE,139,28.0,58.0,91,-99.99,,,-99.99,,2013-01-11 06:42:00,
2013-01-10 23:52:00,8.0,6.0,-100.00,SE,139,28.0,58.0,91,-99.99,,,-99.99,,2013-01-11 06:52:00,